sensor_id;sensor_type;location;lat;lon;timestamp;temperature;humidity
21830;DHT22;11077;50.264;6.798;2023-05-07T00:01:45;11.00;99.90
21830;DHT22;11077;50.264;6.798;2023-05-07T00:04:12;11.00;99.90
21830;DHT22;11077;50.264;6.798;2023-05-07T00:06:41;11.00;99.90
21830;DHT22;11077;50.264;6.798;2023-05-07T00:09:08;11.00;99.90
21830;DHT22;11077;50.264;6.798;2023-05-07T00:11:35;11.00;99.90
21830;DHT22;11077;50.264;6.798;2023-05-07T00:14:02;11.00;99.90
21830;DHT22;11077;50.264;6.798;2023-05-07T00:16:29;11.00;99.90
21830;DHT22;11077;50.264;6.798;2023-05-07T00:18:56;11.00;99.90
21830;DHT22;11077;50.264;6.798;2023-05-07T00:21:23;11.00;99.90
21830;DHT22;11077;50.264;6.798;2023-05-07T00:23:53;11.00;99.90
21830;DHT22;11077;50.264;6.798;2023-05-07T00:26:20;10.90;99.90
21830;DHT22;11077;50.264;6.798;2023-05-07T00:28:49;11.00;99.90
21830;DHT22;11077;50.264;6.798;2023-05-07T00:31:16;10.90;99.90
21830;DHT22;11077;50.264;6.798;2023-05-07T00:33:44;10.90;99.90
21830;DHT22;11077;50.264;6.798;2023-05-07T00:36:12;10.90;99.90
21830;DHT22;11077;50.264;6.798;2023-05-07T00:38:39;10.90;99.90
21830;DHT22;11077;50.264;6.798;2023-05-07T00:41:08;10.90;99.90
21830;DHT22;11077;50.264;6.798;2023-05-07T00:43:35;11.00;99.90
21830;DHT22;11077;50.264;6.798;2023-05-07T00:46:02;11.00;99.90
21830;DHT22;11077;50.264;6.798;2023-05-07T00:48:30;11.00;99.90
21830;DHT22;11077;50.264;6.798;2023-05-07T00:50:57;11.00;99.90
21830;DHT22;11077;50.264;6.798;2023-05-07T00:53:25;10.90;99.90
21830;DHT22;11077;50.264;6.798;2023-05-07T00:55:52;11.00;99.90
21830;DHT22;11077;50.264;6.798;2023-05-07T00:58:21;11.00;99.90
21830;DHT22;11077;50.264;6.798;2023-05-07T01:00:48;11.00;99.90
21830;DHT22;11077;50.264;6.798;2023-05-07T01:03:15;11.00;99.90
21830;DHT22;11077;50.264;6.798;2023-05-07T01:05:43;11.00;99.90
21830;DHT22;11077;50.264;6.798;2023-05-07T01:08:13;11.00;99.90
21830;DHT22;11077;50.264;6.798;2023-05-07T01:10:41;11.00;99.90
21830;DHT22;11077;50.264;6.798;2023-05-07T01:13:09;10.90;99.90
21830;DHT22;11077;50.264;6.798;2023-05-07T01:15:38;10.90;99.90
21830;DHT22;11077;50.264;6.798;2023-05-07T01:18:06;10.90;99.90
21830;DHT22;11077;50.264;6.798;2023-05-07T01:20:35;10.90;99.90
21830;DHT22;11077;50.264;6.798;2023-05-07T01:23:04;10.90;99.90
21830;DHT22;11077;50.264;6.798;2023-05-07T01:25:32;10.90;99.90
21830;DHT22;11077;50.264;6.798;2023-05-07T01:28:01;10.80;99.90
21830;DHT22;11077;50.264;6.798;2023-05-07T01:30:33;10.80;99.90
21830;DHT22;11077;50.264;6.798;2023-05-07T01:33:06;10.80;99.90
21830;DHT22;11077;50.264;6.798;2023-05-07T01:35:37;10.80;99.90
21830;DHT22;11077;50.264;6.798;2023-05-07T01:38:07;10.90;99.90
21830;DHT22;11077;50.264;6.798;2023-05-07T01:40:35;10.80;99.90
21830;DHT22;11077;50.264;6.798;2023-05-07T01:43:02;10.80;99.90
21830;DHT22;11077;50.264;6.798;2023-05-07T01:45:30;10.90;99.90
21830;DHT22;11077;50.264;6.798;2023-05-07T01:47:58;10.90;99.90
21830;DHT22;11077;50.264;6.798;2023-05-07T01:50:26;10.90;99.90
21830;DHT22;11077;50.264;6.798;2023-05-07T01:52:53;10.90;99.90
21830;DHT22;11077;50.264;6.798;2023-05-07T01:55:22;10.90;99.90
21830;DHT22;11077;50.264;6.798;2023-05-07T01:57:49;10.90;99.90
21830;DHT22;11077;50.264;6.798;2023-05-07T02:00:17;10.90;99.90
21830;DHT22;11077;50.264;6.798;2023-05-07T02:02:44;10.80;99.90
21830;DHT22;11077;50.264;6.798;2023-05-07T02:05:33;10.90;99.90
21830;DHT22;11077;50.264;6.798;2023-05-07T02:08:15;10.90;99.90
21830;DHT22;11077;50.264;6.798;2023-05-07T02:10:44;10.80;99.90
21830;DHT22;11077;50.264;6.798;2023-05-07T02:13:11;10.80;99.90
21830;DHT22;11077;50.264;6.798;2023-05-07T02:15:38;10.80;99.90
21830;DHT22;11077;50.264;6.798;2023-05-07T02:18:08;10.80;99.90
21830;DHT22;11077;50.264;6.798;2023-05-07T02:20:36;10.80;99.90
21830;DHT22;11077;50.264;6.798;2023-05-07T02:23:03;10.80;99.90
21830;DHT22;11077;50.264;6.798;2023-05-07T02:25:31;10.80;99.90
21830;DHT22;11077;50.264;6.798;2023-05-07T02:28:00;10.80;99.90
21830;DHT22;11077;50.264;6.798;2023-05-07T02:30:50;10.80;99.90
21830;DHT22;11077;50.264;6.798;2023-05-07T02:33:18;10.80;99.90
21830;DHT22;11077;50.264;6.798;2023-05-07T02:35:46;10.90;99.90
21830;DHT22;11077;50.264;6.798;2023-05-07T02:38:15;10.90;99.90
21830;DHT22;11077;50.264;6.798;2023-05-07T02:40:43;10.90;99.90
21830;DHT22;11077;50.264;6.798;2023-05-07T02:43:11;10.80;99.90
21830;DHT22;11077;50.264;6.798;2023-05-07T02:45:42;10.90;99.90
21830;DHT22;11077;50.264;6.798;2023-05-07T02:48:10;10.90;99.90
21830;DHT22;11077;50.264;6.798;2023-05-07T02:50:38;10.90;99.90
21830;DHT22;11077;50.264;6.798;2023-05-07T02:53:05;10.90;99.90
21830;DHT22;11077;50.264;6.798;2023-05-07T02:55:32;10.90;99.90
21830;DHT22;11077;50.264;6.798;2023-05-07T02:57:59;10.90;99.90
21830;DHT22;11077;50.264;6.798;2023-05-07T03:00:28;10.90;99.90
21830;DHT22;11077;50.264;6.798;2023-05-07T03:03:07;10.90;99.90
21830;DHT22;11077;50.264;6.798;2023-05-07T03:05:34;10.90;99.90
21830;DHT22;11077;50.264;6.798;2023-05-07T03:08:02;10.90;99.90
21830;DHT22;11077;50.264;6.798;2023-05-07T03:10:30;10.90;99.90
21830;DHT22;11077;50.264;6.798;2023-05-07T03:12:57;10.90;99.90
21830;DHT22;11077;50.264;6.798;2023-05-07T03:15:24;10.90;99.90
21830;DHT22;11077;50.264;6.798;2023-05-07T03:17:54;10.90;99.90
21830;DHT22;11077;50.264;6.798;2023-05-07T03:20:21;10.90;99.90
21830;DHT22;11077;50.264;6.798;2023-05-07T03:22:48;10.90;99.90
21830;DHT22;11077;50.264;6.798;2023-05-07T03:25:15;10.90;99.90
21830;DHT22;11077;50.264;6.798;2023-05-07T03:27:42;10.90;99.90
21830;DHT22;11077;50.264;6.798;2023-05-07T03:30:11;10.90;99.90
21830;DHT22;11077;50.264;6.798;2023-05-07T03:32:38;10.90;99.90
21830;DHT22;11077;50.264;6.798;2023-05-07T03:35:10;10.90;99.90
21830;DHT22;11077;50.264;6.798;2023-05-07T03:37:39;10.90;99.90
21830;DHT22;11077;50.264;6.798;2023-05-07T03:40:07;10.90;99.90
21830;DHT22;11077;50.264;6.798;2023-05-07T03:42:42;10.90;99.90
21830;DHT22;11077;50.264;6.798;2023-05-07T03:45:11;10.90;99.90
21830;DHT22;11077;50.264;6.798;2023-05-07T03:47:42;10.90;99.90
21830;DHT22;11077;50.264;6.798;2023-05-07T03:50:13;10.90;99.90
21830;DHT22;11077;50.264;6.798;2023-05-07T03:52:41;10.90;99.90
21830;DHT22;11077;50.264;6.798;2023-05-07T03:55:09;11.00;99.90
21830;DHT22;11077;50.264;6.798;2023-05-07T03:57:39;11.00;99.90
21830;DHT22;11077;50.264;6.798;2023-05-07T04:00:07;11.00;99.90
21830;DHT22;11077;50.264;6.798;2023-05-07T04:02:46;11.00;99.90
21830;DHT22;11077;50.264;6.798;2023-05-07T04:05:17;11.00;99.90
21830;DHT22;11077;50.264;6.798;2023-05-07T04:07:47;11.00;99.90
21830;DHT22;11077;50.264;6.798;2023-05-07T04:10:19;11.00;99.90
21830;DHT22;11077;50.264;6.798;2023-05-07T04:12:48;10.90;99.90
21830;DHT22;11077;50.264;6.798;2023-05-07T04:15:20;11.00;99.90
21830;DHT22;11077;50.264;6.798;2023-05-07T04:17:47;10.90;99.90
21830;DHT22;11077;50.264;6.798;2023-05-07T04:20:19;10.90;99.90
21830;DHT22;11077;50.264;6.798;2023-05-07T04:22:51;10.90;99.90
21830;DHT22;11077;50.264;6.798;2023-05-07T04:25:19;10.90;99.90
21830;DHT22;11077;50.264;6.798;2023-05-07T04:27:46;10.90;99.90
21830;DHT22;11077;50.264;6.798;2023-05-07T04:30:16;10.90;99.90
21830;DHT22;11077;50.264;6.798;2023-05-07T04:32:43;10.90;99.90
21830;DHT22;11077;50.264;6.798;2023-05-07T04:35:11;10.90;99.90
21830;DHT22;11077;50.264;6.798;2023-05-07T04:37:40;10.90;99.90
21830;DHT22;11077;50.264;6.798;2023-05-07T04:40:08;10.90;99.90
21830;DHT22;11077;50.264;6.798;2023-05-07T04:42:36;11.00;99.90
21830;DHT22;11077;50.264;6.798;2023-05-07T04:45:04;11.00;99.90
21830;DHT22;11077;50.264;6.798;2023-05-07T04:47:34;11.00;99.90
21830;DHT22;11077;50.264;6.798;2023-05-07T04:50:02;11.00;99.90
21830;DHT22;11077;50.264;6.798;2023-05-07T04:52:29;11.00;99.90
21830;DHT22;11077;50.264;6.798;2023-05-07T04:55:01;11.00;99.90
21830;DHT22;11077;50.264;6.798;2023-05-07T04:57:33;11.00;99.90
21830;DHT22;11077;50.264;6.798;2023-05-07T05:00:01;11.00;99.90
21830;DHT22;11077;50.264;6.798;2023-05-07T05:02:31;11.10;99.90
21830;DHT22;11077;50.264;6.798;2023-05-07T05:04:59;11.00;99.90
21830;DHT22;11077;50.264;6.798;2023-05-07T05:07:28;11.10;99.90
21830;DHT22;11077;50.264;6.798;2023-05-07T05:09:56;11.20;99.90
21830;DHT22;11077;50.264;6.798;2023-05-07T05:12:25;11.20;99.90
21830;DHT22;11077;50.264;6.798;2023-05-07T05:14:52;11.10;99.90
21830;DHT22;11077;50.264;6.798;2023-05-07T05:17:20;11.20;99.90
21830;DHT22;11077;50.264;6.798;2023-05-07T05:19:47;11.20;99.90
21830;DHT22;11077;50.264;6.798;2023-05-07T05:22:15;11.20;99.90
21830;DHT22;11077;50.264;6.798;2023-05-07T05:24:43;11.30;99.90
21830;DHT22;11077;50.264;6.798;2023-05-07T05:27:10;11.30;99.90
21830;DHT22;11077;50.264;6.798;2023-05-07T05:29:39;11.40;99.90
21830;DHT22;11077;50.264;6.798;2023-05-07T05:32:06;11.40;99.90
21830;DHT22;11077;50.264;6.798;2023-05-07T05:34:34;11.40;99.90
21830;DHT22;11077;50.264;6.798;2023-05-07T05:37:02;11.40;99.90
21830;DHT22;11077;50.264;6.798;2023-05-07T05:39:30;11.50;99.90
21830;DHT22;11077;50.264;6.798;2023-05-07T05:41:57;11.50;99.90
21830;DHT22;11077;50.264;6.798;2023-05-07T05:44:25;11.50;99.90
21830;DHT22;11077;50.264;6.798;2023-05-07T05:46:53;11.50;99.90
21830;DHT22;11077;50.264;6.798;2023-05-07T05:49:23;11.50;99.90
21830;DHT22;11077;50.264;6.798;2023-05-07T05:51:50;11.50;99.90
21830;DHT22;11077;50.264;6.798;2023-05-07T05:54:18;11.60;99.90
21830;DHT22;11077;50.264;6.798;2023-05-07T05:56:45;11.60;99.90
21830;DHT22;11077;50.264;6.798;2023-05-07T05:59:13;11.70;99.90
21830;DHT22;11077;50.264;6.798;2023-05-07T06:01:40;11.80;99.90
21830;DHT22;11077;50.264;6.798;2023-05-07T06:04:08;11.90;99.90
21830;DHT22;11077;50.264;6.798;2023-05-07T06:06:36;12.00;99.90
21830;DHT22;11077;50.264;6.798;2023-05-07T06:09:03;12.10;99.90
21830;DHT22;11077;50.264;6.798;2023-05-07T06:11:37;12.20;99.90
21830;DHT22;11077;50.264;6.798;2023-05-07T06:14:05;12.40;99.90
21830;DHT22;11077;50.264;6.798;2023-05-07T06:16:33;12.50;99.90
21830;DHT22;11077;50.264;6.798;2023-05-07T06:19:01;12.60;99.90
21830;DHT22;11077;50.264;6.798;2023-05-07T06:21:30;12.70;99.90
21830;DHT22;11077;50.264;6.798;2023-05-07T06:23:57;12.80;99.90
21830;DHT22;11077;50.264;6.798;2023-05-07T06:26:24;12.90;99.90
21830;DHT22;11077;50.264;6.798;2023-05-07T06:28:52;12.90;99.90
21830;DHT22;11077;50.264;6.798;2023-05-07T06:31:20;13.00;99.90
21830;DHT22;11077;50.264;6.798;2023-05-07T06:33:58;13.10;99.90
21830;DHT22;11077;50.264;6.798;2023-05-07T06:36:34;13.20;99.90
21830;DHT22;11077;50.264;6.798;2023-05-07T06:39:08;13.30;99.90
21830;DHT22;11077;50.264;6.798;2023-05-07T06:41:36;13.40;99.90
21830;DHT22;11077;50.264;6.798;2023-05-07T06:44:08;13.50;99.90
21830;DHT22;11077;50.264;6.798;2023-05-07T06:46:41;13.60;99.90
21830;DHT22;11077;50.264;6.798;2023-05-07T06:49:10;13.60;99.90
21830;DHT22;11077;50.264;6.798;2023-05-07T06:51:39;13.70;99.90
21830;DHT22;11077;50.264;6.798;2023-05-07T06:54:06;13.80;99.90
21830;DHT22;11077;50.264;6.798;2023-05-07T06:56:36;13.90;99.90
21830;DHT22;11077;50.264;6.798;2023-05-07T06:59:05;14.00;99.90
21830;DHT22;11077;50.264;6.798;2023-05-07T07:01:37;14.10;99.90
21830;DHT22;11077;50.264;6.798;2023-05-07T07:04:06;14.20;99.90
21830;DHT22;11077;50.264;6.798;2023-05-07T07:06:34;14.20;99.90
21830;DHT22;11077;50.264;6.798;2023-05-07T07:09:07;14.30;99.90
21830;DHT22;11077;50.264;6.798;2023-05-07T07:11:35;14.40;99.90
21830;DHT22;11077;50.264;6.798;2023-05-07T07:14:02;14.40;99.90
21830;DHT22;11077;50.264;6.798;2023-05-07T07:16:34;14.50;99.90
21830;DHT22;11077;50.264;6.798;2023-05-07T07:19:01;14.50;99.90
21830;DHT22;11077;50.264;6.798;2023-05-07T07:21:29;14.60;99.90
21830;DHT22;11077;50.264;6.798;2023-05-07T07:23:57;14.60;99.90
21830;DHT22;11077;50.264;6.798;2023-05-07T07:26:26;14.60;99.90
21830;DHT22;11077;50.264;6.798;2023-05-07T07:28:54;14.70;99.90
21830;DHT22;11077;50.264;6.798;2023-05-07T07:31:22;14.70;99.90
21830;DHT22;11077;50.264;6.798;2023-05-07T07:33:51;14.80;99.90
21830;DHT22;11077;50.264;6.798;2023-05-07T07:36:18;14.80;99.90
21830;DHT22;11077;50.264;6.798;2023-05-07T07:38:46;14.80;99.90
21830;DHT22;11077;50.264;6.798;2023-05-07T07:41:15;14.90;99.90
21830;DHT22;11077;50.264;6.798;2023-05-07T07:43:45;14.90;99.90
21830;DHT22;11077;50.264;6.798;2023-05-07T07:46:14;15.00;99.90
21830;DHT22;11077;50.264;6.798;2023-05-07T07:48:42;15.00;99.90
21830;DHT22;11077;50.264;6.798;2023-05-07T07:51:10;15.00;99.90
21830;DHT22;11077;50.264;6.798;2023-05-07T07:53:37;15.10;99.90
21830;DHT22;11077;50.264;6.798;2023-05-07T07:56:05;15.20;99.90
21830;DHT22;11077;50.264;6.798;2023-05-07T07:58:34;15.20;99.90
21830;DHT22;11077;50.264;6.798;2023-05-07T08:01:04;15.40;99.90
21830;DHT22;11077;50.264;6.798;2023-05-07T08:03:32;15.50;99.90
21830;DHT22;11077;50.264;6.798;2023-05-07T08:06:01;15.70;99.90
21830;DHT22;11077;50.264;6.798;2023-05-07T08:08:29;15.90;99.90
21830;DHT22;11077;50.264;6.798;2023-05-07T08:10:56;16.10;99.90
21830;DHT22;11077;50.264;6.798;2023-05-07T08:13:29;16.30;99.90
21830;DHT22;11077;50.264;6.798;2023-05-07T08:15:57;16.60;99.90
21830;DHT22;11077;50.264;6.798;2023-05-07T08:18:26;16.90;99.90
21830;DHT22;11077;50.264;6.798;2023-05-07T08:20:56;17.10;99.90
21830;DHT22;11077;50.264;6.798;2023-05-07T08:23:25;17.30;99.90
21830;DHT22;11077;50.264;6.798;2023-05-07T08:25:53;17.50;99.90
21830;DHT22;11077;50.264;6.798;2023-05-07T08:28:20;17.60;99.90
21830;DHT22;11077;50.264;6.798;2023-05-07T08:30:48;17.80;99.90
21830;DHT22;11077;50.264;6.798;2023-05-07T08:33:15;17.80;99.90
21830;DHT22;11077;50.264;6.798;2023-05-07T08:35:43;18.00;99.90
21830;DHT22;11077;50.264;6.798;2023-05-07T08:38:13;18.20;99.90
21830;DHT22;11077;50.264;6.798;2023-05-07T08:40:41;18.40;99.90
21830;DHT22;11077;50.264;6.798;2023-05-07T08:43:18;18.50;99.90
21830;DHT22;11077;50.264;6.798;2023-05-07T08:45:49;18.70;99.90
21830;DHT22;11077;50.264;6.798;2023-05-07T08:48:19;18.90;99.90
21830;DHT22;11077;50.264;6.798;2023-05-07T08:50:58;19.00;99.90
21830;DHT22;11077;50.264;6.798;2023-05-07T08:53:25;19.20;99.90
21830;DHT22;11077;50.264;6.798;2023-05-07T08:55:53;19.20;99.90
21830;DHT22;11077;50.264;6.798;2023-05-07T08:58:21;19.30;99.90
21830;DHT22;11077;50.264;6.798;2023-05-07T09:00:50;19.50;99.90
21830;DHT22;11077;50.264;6.798;2023-05-07T09:03:19;19.50;99.90
21830;DHT22;11077;50.264;6.798;2023-05-07T09:05:50;19.70;99.90
21830;DHT22;11077;50.264;6.798;2023-05-07T09:08:24;19.70;99.90
21830;DHT22;11077;50.264;6.798;2023-05-07T09:10:52;19.80;99.90
21830;DHT22;11077;50.264;6.798;2023-05-07T09:13:21;19.80;99.90
21830;DHT22;11077;50.264;6.798;2023-05-07T09:15:49;19.80;99.90
21830;DHT22;11077;50.264;6.798;2023-05-07T09:18:17;19.80;99.90
21830;DHT22;11077;50.264;6.798;2023-05-07T09:20:47;19.80;99.90
21830;DHT22;11077;50.264;6.798;2023-05-07T09:23:17;19.80;99.90
21830;DHT22;11077;50.264;6.798;2023-05-07T09:25:46;19.80;99.90
21830;DHT22;11077;50.264;6.798;2023-05-07T09:28:26;19.70;99.90
21830;DHT22;11077;50.264;6.798;2023-05-07T09:30:53;19.70;99.90
21830;DHT22;11077;50.264;6.798;2023-05-07T09:33:27;19.80;99.90
21830;DHT22;11077;50.264;6.798;2023-05-07T09:35:56;19.90;99.90
21830;DHT22;11077;50.264;6.798;2023-05-07T09:38:23;20.00;99.90
21830;DHT22;11077;50.264;6.798;2023-05-07T09:41:04;20.30;99.90
21830;DHT22;11077;50.264;6.798;2023-05-07T09:43:36;20.40;99.90
21830;DHT22;11077;50.264;6.798;2023-05-07T09:46:08;20.50;99.90
21830;DHT22;11077;50.264;6.798;2023-05-07T09:48:38;20.70;99.90
21830;DHT22;11077;50.264;6.798;2023-05-07T09:51:21;20.80;99.90
21830;DHT22;11077;50.264;6.798;2023-05-07T09:53:50;21.10;99.90
21830;DHT22;11077;50.264;6.798;2023-05-07T09:56:20;21.20;99.90
21830;DHT22;11077;50.264;6.798;2023-05-07T09:58:49;21.30;99.90
21830;DHT22;11077;50.264;6.798;2023-05-07T10:01:20;21.40;99.90
21830;DHT22;11077;50.264;6.798;2023-05-07T10:03:50;21.50;99.90
21830;DHT22;11077;50.264;6.798;2023-05-07T10:06:19;21.60;99.90
21830;DHT22;11077;50.264;6.798;2023-05-07T10:08:46;21.60;99.90
21830;DHT22;11077;50.264;6.798;2023-05-07T10:11:15;21.60;99.90
21830;DHT22;11077;50.264;6.798;2023-05-07T10:13:46;21.60;99.90
21830;DHT22;11077;50.264;6.798;2023-05-07T10:16:15;21.70;99.90
21830;DHT22;11077;50.264;6.798;2023-05-07T10:18:46;21.80;99.90
21830;DHT22;11077;50.264;6.798;2023-05-07T10:21:21;21.80;99.90
21830;DHT22;11077;50.264;6.798;2023-05-07T10:23:58;21.80;99.90
21830;DHT22;11077;50.264;6.798;2023-05-07T10:26:28;21.80;99.90
21830;DHT22;11077;50.264;6.798;2023-05-07T10:29:04;21.80;99.90
21830;DHT22;11077;50.264;6.798;2023-05-07T10:31:50;22.00;99.90
21830;DHT22;11077;50.264;6.798;2023-05-07T10:34:22;22.20;99.90
21830;DHT22;11077;50.264;6.798;2023-05-07T10:36:52;22.50;99.90
21830;DHT22;11077;50.264;6.798;2023-05-07T10:39:20;22.40;99.90
21830;DHT22;11077;50.264;6.798;2023-05-07T10:41:48;22.30;99.90
21830;DHT22;11077;50.264;6.798;2023-05-07T10:44:27;22.20;99.90
21830;DHT22;11077;50.264;6.798;2023-05-07T10:47:06;22.10;99.90
21830;DHT22;11077;50.264;6.798;2023-05-07T10:49:36;21.90;99.90
21830;DHT22;11077;50.264;6.798;2023-05-07T10:52:18;21.70;99.90
21830;DHT22;11077;50.264;6.798;2023-05-07T10:55:21;21.60;99.90
21830;DHT22;11077;50.264;6.798;2023-05-07T10:58:23;21.50;99.90
21830;DHT22;11077;50.264;6.798;2023-05-07T11:00:58;21.40;99.90
21830;DHT22;11077;50.264;6.798;2023-05-07T11:03:31;21.30;99.90
21830;DHT22;11077;50.264;6.798;2023-05-07T11:06:11;21.30;99.90
21830;DHT22;11077;50.264;6.798;2023-05-07T11:08:55;21.20;99.90
21830;DHT22;11077;50.264;6.798;2023-05-07T11:11:50;21.20;99.90
21830;DHT22;11077;50.264;6.798;2023-05-07T11:14:44;21.20;99.90
21830;DHT22;11077;50.264;6.798;2023-05-07T11:17:17;21.10;99.90
21830;DHT22;11077;50.264;6.798;2023-05-07T11:19:52;21.10;99.90
21830;DHT22;11077;50.264;6.798;2023-05-07T11:22:42;21.00;99.90
21830;DHT22;11077;50.264;6.798;2023-05-07T11:25:29;21.00;99.90
21830;DHT22;11077;50.264;6.798;2023-05-07T11:28:11;20.90;99.90
21830;DHT22;11077;50.264;6.798;2023-05-07T11:30:45;21.00;99.90
21830;DHT22;11077;50.264;6.798;2023-05-07T11:33:19;21.00;99.90
21830;DHT22;11077;50.264;6.798;2023-05-07T11:35:48;21.00;99.90
21830;DHT22;11077;50.264;6.798;2023-05-07T11:38:18;21.10;99.90
21830;DHT22;11077;50.264;6.798;2023-05-07T11:40:49;21.10;99.90
21830;DHT22;11077;50.264;6.798;2023-05-07T11:43:17;21.00;99.90
21830;DHT22;11077;50.264;6.798;2023-05-07T11:45:45;21.00;99.90
21830;DHT22;11077;50.264;6.798;2023-05-07T11:48:13;21.00;99.90
21830;DHT22;11077;50.264;6.798;2023-05-07T11:50:52;21.00;99.90
21830;DHT22;11077;50.264;6.798;2023-05-07T11:53:19;20.90;99.90
21830;DHT22;11077;50.264;6.798;2023-05-07T11:55:46;21.00;99.90
21830;DHT22;11077;50.264;6.798;2023-05-07T11:58:21;21.00;99.90
21830;DHT22;11077;50.264;6.798;2023-05-07T12:00:48;21.00;99.90
21830;DHT22;11077;50.264;6.798;2023-05-07T12:03:16;21.00;99.90
21830;DHT22;11077;50.264;6.798;2023-05-07T12:05:44;21.00;99.90
21830;DHT22;11077;50.264;6.798;2023-05-07T12:08:15;20.90;99.90
21830;DHT22;11077;50.264;6.798;2023-05-07T12:10:43;20.90;99.90
21830;DHT22;11077;50.264;6.798;2023-05-07T12:13:17;21.00;99.90
21830;DHT22;11077;50.264;6.798;2023-05-07T12:15:45;21.10;99.90
21830;DHT22;11077;50.264;6.798;2023-05-07T12:18:12;21.20;99.90
21830;DHT22;11077;50.264;6.798;2023-05-07T12:20:40;21.30;99.90
21830;DHT22;11077;50.264;6.798;2023-05-07T12:23:07;21.40;99.90
21830;DHT22;11077;50.264;6.798;2023-05-07T12:25:37;21.50;99.90
21830;DHT22;11077;50.264;6.798;2023-05-07T12:28:05;21.50;99.90
21830;DHT22;11077;50.264;6.798;2023-05-07T12:30:36;21.60;99.90
21830;DHT22;11077;50.264;6.798;2023-05-07T12:33:04;21.60;99.90
21830;DHT22;11077;50.264;6.798;2023-05-07T12:35:32;21.70;99.90
21830;DHT22;11077;50.264;6.798;2023-05-07T12:37:59;21.80;99.90
21830;DHT22;11077;50.264;6.798;2023-05-07T12:40:37;21.80;99.90
21830;DHT22;11077;50.264;6.798;2023-05-07T12:43:05;21.90;99.90
21830;DHT22;11077;50.264;6.798;2023-05-07T12:45:37;22.00;99.90
21830;DHT22;11077;50.264;6.798;2023-05-07T12:48:05;22.10;99.90
21830;DHT22;11077;50.264;6.798;2023-05-07T12:50:32;22.00;99.90
21830;DHT22;11077;50.264;6.798;2023-05-07T12:53:00;22.00;99.90
21830;DHT22;11077;50.264;6.798;2023-05-07T12:55:32;22.10;99.90
21830;DHT22;11077;50.264;6.798;2023-05-07T12:58:01;22.10;99.90
21830;DHT22;11077;50.264;6.798;2023-05-07T13:00:35;21.90;99.90
21830;DHT22;11077;50.264;6.798;2023-05-07T13:03:03;21.80;99.90
21830;DHT22;11077;50.264;6.798;2023-05-07T13:05:30;21.80;99.90
21830;DHT22;11077;50.264;6.798;2023-05-07T13:07:58;21.60;99.90
21830;DHT22;11077;50.264;6.798;2023-05-07T13:10:26;21.40;99.90
21830;DHT22;11077;50.264;6.798;2023-05-07T13:12:53;21.30;99.90
21830;DHT22;11077;50.264;6.798;2023-05-07T13:15:22;21.10;99.90
21830;DHT22;11077;50.264;6.798;2023-05-07T13:17:49;21.00;99.90
21830;DHT22;11077;50.264;6.798;2023-05-07T13:20:17;20.90;99.90
21830;DHT22;11077;50.264;6.798;2023-05-07T13:22:44;20.90;99.90
21830;DHT22;11077;50.264;6.798;2023-05-07T13:25:11;20.70;99.90
21830;DHT22;11077;50.264;6.798;2023-05-07T13:27:38;20.60;99.90
21830;DHT22;11077;50.264;6.798;2023-05-07T13:30:06;20.60;99.90
21830;DHT22;11077;50.264;6.798;2023-05-07T13:32:35;20.40;99.90
21830;DHT22;11077;50.264;6.798;2023-05-07T13:35:02;20.30;99.90
21830;DHT22;11077;50.264;6.798;2023-05-07T13:37:29;20.30;99.90
21830;DHT22;11077;50.264;6.798;2023-05-07T13:39:56;20.30;99.90
21830;DHT22;11077;50.264;6.798;2023-05-07T13:42:23;20.30;99.90
21830;DHT22;11077;50.264;6.798;2023-05-07T13:44:50;20.20;99.90
21830;DHT22;11077;50.264;6.798;2023-05-07T13:47:17;20.10;99.90
21830;DHT22;11077;50.264;6.798;2023-05-07T13:49:46;20.10;99.90
21830;DHT22;11077;50.264;6.798;2023-05-07T13:52:16;20.00;99.90
21830;DHT22;11077;50.264;6.798;2023-05-07T13:54:44;20.00;99.90
21830;DHT22;11077;50.264;6.798;2023-05-07T13:57:11;19.80;99.90
21830;DHT22;11077;50.264;6.798;2023-05-07T13:59:38;19.40;99.90
21830;DHT22;11077;50.264;6.798;2023-05-07T14:02:06;19.00;99.90
21830;DHT22;11077;50.264;6.798;2023-05-07T14:04:34;18.70;99.90
21830;DHT22;11077;50.264;6.798;2023-05-07T14:07:03;18.10;99.90
21830;DHT22;11077;50.264;6.798;2023-05-07T14:09:30;17.50;99.90
21830;DHT22;11077;50.264;6.798;2023-05-07T14:11:59;17.20;99.90
21830;DHT22;11077;50.264;6.798;2023-05-07T14:14:27;17.10;99.90
21830;DHT22;11077;50.264;6.798;2023-05-07T14:16:54;17.00;99.90
21830;DHT22;11077;50.264;6.798;2023-05-07T14:19:21;16.90;99.90
21830;DHT22;11077;50.264;6.798;2023-05-07T14:21:49;16.70;99.90
21830;DHT22;11077;50.264;6.798;2023-05-07T14:24:18;16.60;99.90
21830;DHT22;11077;50.264;6.798;2023-05-07T14:26:45;16.60;99.90
21830;DHT22;11077;50.264;6.798;2023-05-07T14:29:12;16.60;99.90
21830;DHT22;11077;50.264;6.798;2023-05-07T14:31:41;16.60;99.90
21830;DHT22;11077;50.264;6.798;2023-05-07T14:34:08;16.60;99.90
21830;DHT22;11077;50.264;6.798;2023-05-07T14:36:35;16.50;99.90
21830;DHT22;11077;50.264;6.798;2023-05-07T14:39:03;16.40;99.90
21830;DHT22;11077;50.264;6.798;2023-05-07T14:41:32;16.30;99.90
21830;DHT22;11077;50.264;6.798;2023-05-07T14:43:59;16.20;99.90
21830;DHT22;11077;50.264;6.798;2023-05-07T14:46:26;16.20;99.90
21830;DHT22;11077;50.264;6.798;2023-05-07T14:48:53;16.20;99.90
21830;DHT22;11077;50.264;6.798;2023-05-07T14:51:20;16.20;99.90
21830;DHT22;11077;50.264;6.798;2023-05-07T14:53:48;16.10;99.90
21830;DHT22;11077;50.264;6.798;2023-05-07T14:56:15;15.90;99.90
21830;DHT22;11077;50.264;6.798;2023-05-07T14:58:47;15.80;99.90
21830;DHT22;11077;50.264;6.798;2023-05-07T15:01:14;15.70;99.90
21830;DHT22;11077;50.264;6.798;2023-05-07T15:03:42;15.70;99.90
21830;DHT22;11077;50.264;6.798;2023-05-07T15:06:09;15.60;99.90
21830;DHT22;11077;50.264;6.798;2023-05-07T15:08:36;15.60;99.90
21830;DHT22;11077;50.264;6.798;2023-05-07T15:11:03;15.50;99.90
21830;DHT22;11077;50.264;6.798;2023-05-07T15:13:30;15.50;99.90
21830;DHT22;11077;50.264;6.798;2023-05-07T15:16:00;15.50;99.90
21830;DHT22;11077;50.264;6.798;2023-05-07T15:18:27;15.50;99.90
21830;DHT22;11077;50.264;6.798;2023-05-07T15:20:55;15.50;99.90
21830;DHT22;11077;50.264;6.798;2023-05-07T15:23:23;15.50;99.90
21830;DHT22;11077;50.264;6.798;2023-05-07T15:25:52;15.40;99.90
21830;DHT22;11077;50.264;6.798;2023-05-07T15:28:21;15.40;99.90
21830;DHT22;11077;50.264;6.798;2023-05-07T15:30:50;15.40;99.90
21830;DHT22;11077;50.264;6.798;2023-05-07T15:33:18;15.40;99.90
21830;DHT22;11077;50.264;6.798;2023-05-07T15:35:46;15.40;99.90
21830;DHT22;11077;50.264;6.798;2023-05-07T15:38:13;15.30;99.90
21830;DHT22;11077;50.264;6.798;2023-05-07T15:40:41;15.30;99.90
21830;DHT22;11077;50.264;6.798;2023-05-07T15:43:08;15.20;99.90
21830;DHT22;11077;50.264;6.798;2023-05-07T15:45:39;15.20;99.90